Time;durP1;ratioP1;P1;durP2;ratioP2;P2;SDS_P1;SDS_P2;PMS_P1;PMS_P2;Temp;Humidity;BMP_temperature;BMP_pressure;BME280_temperature;BME280_humidity;BME280_pressure;Samples;Min_cycle;Max_cycle;Signal;HPM_P1;HPM_P2
2023/02/06 00:04:27;;;;;;;4.37;3.97;;;5.10;37.20;;;;;;10477775;28;20238;-71
2023/02/06 00:09:31;;;;;;;4.47;3.97;;;5.00;37.10;;;;;;10475286;28;20232;-71
2023/02/06 00:14:34;;;;;;;4.50;4.10;;;5.00;37.30;;;;;;10481403;28;20232;-72
2023/02/06 00:19:38;;;;;;;4.40;4.10;;;5.00;37.50;;;;;;10475126;28;20723;-72
2023/02/06 00:24:42;;;;;;;4.00;3.70;;;4.90;37.50;;;;;;10481213;28;20803;-72
2023/02/06 00:29:45;;;;;;;4.73;4.37;;;4.90;37.60;;;;;;10484884;28;20584;-71
2023/02/06 00:34:49;;;;;;;4.53;4.17;;;4.90;37.50;;;;;;10489168;28;20232;-72
2023/02/06 00:39:53;;;;;;;4.57;4.17;;;4.80;37.30;;;;;;10490332;28;20236;-73
2023/02/06 00:44:56;;;;;;;4.13;3.83;;;4.80;37.40;;;;;;10488715;28;20230;-72
2023/02/06 00:50:01;;;;;;;5.00;4.60;;;4.70;37.30;;;;;;10487923;28;20231;-73
2023/02/06 00:55:04;;;;;;;4.67;4.20;;;4.70;37.30;;;;;;10491585;28;20714;-73
2023/02/06 01:00:09;;;;;;;4.47;4.07;;;4.60;37.40;;;;;;10489532;28;20224;-72
2023/02/06 01:05:14;;;;;;;4.43;4.03;;;4.60;37.40;;;;;;10490798;28;20232;-73
2023/02/06 01:10:17;;;;;;;4.33;3.93;;;4.60;37.50;;;;;;10489831;28;20407;-72
2023/02/06 01:15:20;;;;;;;4.27;3.93;;;4.50;37.40;;;;;;10491592;28;20232;-73
2023/02/06 01:20:25;;;;;;;4.20;3.90;;;4.50;37.40;;;;;;10489947;28;20228;-73
2023/02/06 01:25:28;;;;;;;4.40;4.00;;;4.40;37.30;;;;;;10491146;28;20263;-73
2023/02/06 01:30:31;;;;;;;4.07;3.70;;;4.40;37.50;;;;;;10492669;28;20250;-73
2023/02/06 01:35:36;;;;;;;4.97;4.50;;;4.40;37.50;;;;;;10487111;28;20780;-72
2023/02/06 01:40:39;;;;;;;5.23;4.73;;;4.30;37.40;;;;;;10485906;28;20228;-73
2023/02/06 01:45:45;;;;;;;5.47;5.00;;;4.30;37.60;;;;;;10483314;28;20833;-73
2023/02/06 01:50:53;;;;;;;4.70;4.30;;;4.30;37.70;;;;;;10477791;28;20247;-72
2023/02/06 01:55:59;;;;;;;4.93;4.53;;;4.30;37.70;;;;;;10485036;28;20739;-72
2023/02/06 02:01:03;;;;;;;4.90;4.50;;;4.30;37.70;;;;;;10479558;28;20720;-72
2023/02/06 02:06:11;;;;;;;5.00;4.60;;;4.30;37.90;;;;;;10481457;28;20256;-72
2023/02/06 02:11:20;;;;;;;5.57;5.10;;;4.30;37.80;;;;;;10484256;28;20231;-72
2023/02/06 02:16:27;;;;;;;5.40;5.00;;;4.30;37.60;;;;;;10480026;28;20232;-73
2023/02/06 02:21:59;;;;;;;5.73;5.23;;;4.30;37.60;;;;;;10479892;28;20282;-73
2023/02/06 02:27:29;;;;;;;5.80;5.30;;;4.30;37.50;;;;;;10481515;28;20221;-73
2023/02/06 02:32:55;;;;;;;5.77;5.20;;;4.20;37.20;;;;;;10481772;28;20236;-73
2023/02/06 02:38:16;;;;;;;5.77;5.27;;;4.20;37.40;;;;;;10430301;28;20247;-73
2023/02/06 02:43:29;;;;;;;4.93;4.53;;;4.10;37.30;;;;;;10478203;28;20220;-73
2023/02/06 02:48:37;;;;;;;5.63;5.13;;;4.10;37.50;;;;;;10479615;28;20224;-73
2023/02/06 02:53:42;;;;;;;4.80;4.40;;;4.00;37.40;;;;;;10483448;28;20244;-73
2023/02/06 02:58:48;;;;;;;5.63;5.07;;;4.00;37.50;;;;;;10478998;28;20228;-73
2023/02/06 03:03:53;;;;;;;5.23;4.77;;;3.90;37.40;;;;;;10483600;28;20244;-73
2023/02/06 03:09:02;;;;;;;5.23;4.83;;;3.90;37.40;;;;;;10479484;28;20239;-73
2023/02/06 03:14:15;;;;;;;5.57;5.03;;;3.90;37.20;;;;;;10481051;28;20698;-72
2023/02/06 03:19:24;;;;;;;5.27;4.73;;;3.80;37.20;;;;;;10482795;28;20235;-72
2023/02/06 03:24:34;;;;;;;5.47;4.97;;;3.80;37.20;;;;;;10474944;28;20235;-73
2023/02/06 03:29:40;;;;;;;5.00;4.50;;;3.70;37.20;;;;;;10479344;28;20738;-72
2023/02/06 03:34:47;;;;;;;6.17;4.00;;;3.60;37.30;;;;;;10477825;28;20232;-73
2023/02/06 03:39:52;;;;;;;5.50;5.00;;;3.60;37.30;;;;;;10476945;28;20228;-73
2023/02/06 03:45:02;;;;;;;5.03;4.63;;;3.60;37.20;;;;;;10477152;28;20240;-73
2023/02/06 03:50:09;;;;;;;5.47;4.97;;;3.60;37.30;;;;;;10478482;28;20228;-73
2023/02/06 03:55:16;;;;;;;4.70;4.30;;;3.50;37.30;;;;;;10478496;28;20591;-73
2023/02/06 04:00:20;;;;;;;5.27;4.60;;;3.40;37.10;;;;;;10478658;28;20653;-73
2023/02/06 04:05:23;;;;;;;5.83;5.10;;;3.40;37.00;;;;;;10476660;28;20235;-73
2023/02/06 04:10:28;;;;;;;5.80;5.20;;;3.30;37.10;;;;;;10479798;28;20241;-73
2023/02/06 04:15:31;;;;;;;4.60;4.20;;;3.30;37.10;;;;;;10476733;28;20711;-73
2023/02/06 04:20:39;;;;;;;7.47;5.13;;;3.20;37.10;;;;;;10478843;28;20240;-73
2023/02/06 04:25:44;;;;;;;6.77;5.13;;;3.20;37.10;;;;;;10477508;28;20678;-73
2023/02/06 04:30:48;;;;;;;8.20;5.20;;;3.20;37.20;;;;;;10476240;28;20227;-73
2023/02/06 04:35:51;;;;;;;6.73;5.50;;;3.20;37.20;;;;;;10477676;28;20243;-73
2023/02/06 04:41:01;;;;;;;6.93;5.00;;;3.10;37.10;;;;;;10477198;28;20862;-73
2023/02/06 04:46:04;;;;;;;6.80;5.33;;;3.00;37.00;;;;;;10477942;28;20236;-73
2023/02/06 04:51:11;;;;;;;6.80;5.67;;;3.00;37.00;;;;;;10477504;28;20258;-75
2023/02/06 04:56:15;;;;;;;7.60;6.43;;;3.10;37.00;;;;;;10473232;28;20223;-74
2023/02/06 05:01:19;;;;;;;7.07;5.50;;;2.90;36.80;;;;;;10479554;28;20232;-75
2023/02/06 05:06:22;;;;;;;7.33;5.53;;;2.80;36.70;;;;;;10475598;28;20244;-73
2023/02/06 05:11:27;;;;;;;10.93;6.27;;;2.80;36.80;;;;;;10478340;28;20244;-73
2023/02/06 05:16:30;;;;;;;6.30;5.60;;;2.70;36.70;;;;;;10481810;28;20239;-73
2023/02/06 05:21:33;;;;;;;7.27;5.93;;;2.70;36.70;;;;;;10483402;28;20228;-73
2023/02/06 05:26:38;;;;;;;6.53;5.50;;;2.60;36.30;;;;;;10483526;28;20224;-73
2023/02/06 05:31:42;;;;;;;7.73;5.33;;;2.50;36.40;;;;;;10485319;28;20311;-73
2023/02/06 05:36:45;;;;;;;8.90;6.10;;;2.40;36.50;;;;;;10483396;28;20220;-73
2023/02/06 05:41:50;;;;;;;7.67;5.77;;;2.40;36.80;;;;;;10477859;28;20236;-73
2023/02/06 05:46:54;;;;;;;6.30;4.93;;;2.30;36.80;;;;;;10482561;28;20604;-73
2023/02/06 05:51:57;;;;;;;6.17;5.57;;;2.20;36.70;;;;;;10483904;28;20251;-74
2023/02/06 05:57:02;;;;;;;5.83;5.27;;;2.30;36.90;;;;;;10481319;28;20231;-74
2023/02/06 06:02:05;;;;;;;5.60;5.10;;;2.30;36.70;;;;;;10480451;28;20225;-74
2023/02/06 06:07:08;;;;;;;5.57;5.07;;;2.10;36.70;;;;;;10479872;28;20220;-73
2023/02/06 06:12:13;;;;;;;6.00;5.43;;;2.00;36.60;;;;;;10480515;28;20236;-74
2023/02/06 06:17:16;;;;;;;5.67;5.17;;;1.90;36.60;;;;;;10480306;28;20233;-73
2023/02/06 06:22:19;;;;;;;5.07;4.57;;;1.90;36.70;;;;;;10486558;28;20240;-71
2023/02/06 06:27:24;;;;;;;5.33;4.83;;;1.80;37.70;;;;;;10480271;28;20625;-75
2023/02/06 06:32:27;;;;;;;5.00;4.50;;;1.80;37.90;;;;;;10480456;28;20232;-74
2023/02/06 06:37:30;;;;;;;6.37;4.63;;;1.90;37.60;;;;;;10479944;28;20231;-74
2023/02/06 06:42:35;;;;;;;5.17;3.97;;;1.90;37.40;;;;;;10484010;28;20798;-75
2023/02/06 06:47:39;;;;;;;5.03;4.53;;;1.80;37.30;;;;;;10481730;28;20228;-74
2023/02/06 06:52:42;;;;;;;4.27;3.87;;;1.80;37.30;;;;;;10479795;28;20240;-74
2023/02/06 06:57:47;;;;;;;5.07;4.23;;;1.90;37.40;;;;;;10481864;28;20723;-74
2023/02/06 07:02:50;;;;;;;4.77;4.37;;;1.80;37.30;;;;;;10480070;28;20740;-74
2023/02/06 07:07:53;;;;;;;4.70;4.30;;;1.80;37.20;;;;;;10474749;28;20314;-74
2023/02/06 07:12:58;;;;;;;5.07;4.57;;;1.70;37.30;;;;;;10483054;28;20244;-74
2023/02/06 07:18:01;;;;;;;4.73;4.30;;;1.80;37.40;;;;;;10482128;28;20617;-74
2023/02/06 07:23:04;;;;;;;4.27;3.90;;;1.70;37.30;;;;;;10482282;28;20515;-73
2023/02/06 07:28:09;;;;;;;4.67;4.27;;;1.70;37.40;;;;;;10478964;28;20228;-73
2023/02/06 07:33:12;;;;;;;5.37;4.87;;;1.70;37.50;;;;;;10480062;28;20301;-74
2023/02/06 07:38:15;;;;;;;5.80;5.30;;;1.70;37.50;;;;;;10480606;28;20752;-74
2023/02/06 07:43:20;;;;;;;5.10;4.70;;;1.70;37.60;;;;;;10481218;28;20231;-74
2023/02/06 07:48:23;;;;;;;4.57;4.17;;;1.90;37.90;;;;;;10478530;28;20936;-74
2023/02/06 07:53:26;;;;;;;5.63;5.10;;;1.70;37.90;;;;;;10480521;28;20708;-74
2023/02/06 07:58:31;;;;;;;5.83;5.33;;;1.80;37.90;;;;;;10479732;28;20228;-74
2023/02/06 08:03:34;;;;;;;5.53;5.03;;;1.80;37.90;;;;;;10481585;28;20632;-74
2023/02/06 08:08:37;;;;;;;5.73;4.70;;;1.90;38.00;;;;;;10477617;28;20601;-74
2023/02/06 08:13:42;;;;;;;4.97;4.57;;;1.90;38.20;;;;;;10479543;28;20442;-73
2023/02/06 08:18:46;;;;;;;5.33;4.83;;;2.00;38.50;;;;;;10478606;28;20849;-73
2023/02/06 08:23:54;;;;;;;6.10;5.03;;;2.10;38.70;;;;;;10478473;28;20243;-72
2023/02/06 08:29:02;;;;;;;6.20;5.60;;;2.20;39.10;;;;;;10480202;28;20228;-71
2023/02/06 08:34:06;;;;;;;6.50;5.90;;;2.40;39.20;;;;;;10477549;28;20220;-71
2023/02/06 08:39:12;;;;;;;8.33;6.13;;;2.60;39.20;;;;;;10478128;28;20228;-71
2023/02/06 08:44:18;;;;;;;7.13;6.03;;;2.80;39.30;;;;;;10477688;28;20841;-71
2023/02/06 08:49:25;;;;;;;6.93;5.57;;;3.10;39.30;;;;;;10485878;28;20236;-71
2023/02/06 08:54:28;;;;;;;5.87;5.27;;;3.10;38.80;;;;;;10485609;28;20228;-71
2023/02/06 08:59:33;;;;;;;6.27;5.43;;;3.20;39.00;;;;;;10487936;28;20232;-71
2023/02/06 09:04:37;;;;;;;5.63;5.13;;;3.30;39.10;;;;;;10484233;28;20243;-71
2023/02/06 09:09:41;;;;;;;5.27;4.77;;;3.40;39.10;;;;;;10482717;28;20232;-70
2023/02/06 09:14:45;;;;;;;8.03;5.50;;;3.50;39.00;;;;;;10487566;28;20228;-71
2023/02/06 09:19:48;;;;;;;6.10;5.50;;;3.70;38.90;;;;;;10482539;28;20240;-71
2023/02/06 09:24:52;;;;;;;6.57;5.97;;;3.80;38.80;;;;;;10483386;28;20718;-71
2023/02/06 09:29:56;;;;;;;6.37;5.80;;;3.90;38.80;;;;;;10485870;28;20243;-71
2023/02/06 09:35:00;;;;;;;6.10;5.60;;;4.00;38.70;;;;;;10484513;28;20319;-71
2023/02/06 09:40:03;;;;;;;6.20;5.60;;;4.10;38.50;;;;;;10486036;28;20338;-71
2023/02/06 09:45:13;;;;;;;5.53;5.03;;;4.20;38.60;;;;;;10482968;28;20597;-71
2023/02/06 09:50:26;;;;;;;5.90;5.40;;;4.30;38.50;;;;;;10483229;28;20247;-71
2023/02/06 09:55:36;;;;;;;5.70;5.20;;;4.30;38.50;;;;;;10482328;28;20240;-70
2023/02/06 10:00:46;;;;;;;6.80;6.10;;;4.40;38.40;;;;;;10483264;28;20232;-70
2023/02/06 10:05:57;;;;;;;6.93;5.40;;;4.40;38.30;;;;;;10482378;28;20244;-71
2023/02/06 10:11:03;;;;;;;5.63;5.13;;;4.40;38.30;;;;;;10476182;28;20931;-71
2023/02/06 10:16:18;;;;;;;6.33;5.73;;;4.50;38.30;;;;;;10482928;28;20231;-71
2023/02/06 10:21:28;;;;;;;5.80;5.30;;;4.50;38.10;;;;;;10480662;28;20308;-71
2023/02/06 10:26:36;;;;;;;5.33;4.83;;;4.50;38.00;;;;;;10481144;28;20236;-71
2023/02/06 10:31:53;;;;;;;6.03;5.43;;;4.60;38.00;;;;;;10483967;28;20228;-70
2023/02/06 10:37:18;;;;;;;6.03;5.43;;;4.60;37.80;;;;;;10481340;28;20742;-70
2023/02/06 10:42:28;;;;;;;6.23;5.00;;;4.70;37.70;;;;;;10481382;28;20259;-71
2023/02/06 10:47:44;;;;;;;5.77;4.83;;;4.70;37.80;;;;;;10484564;28;20243;-70
2023/02/06 10:52:48;;;;;;;5.10;4.60;;;4.80;37.80;;;;;;10477582;28;20236;-73
2023/02/06 10:58:02;;;;;;;6.07;4.77;;;4.80;38.30;;;;;;10474321;28;21199;-71
2023/02/06 11:03:14;;;;;;;5.07;4.60;;;5.00;38.90;;;;;;10474698;28;20224;-70
2023/02/06 11:08:21;;;;;;;4.40;4.00;;;5.10;37.80;;;;;;10471109;28;20268;-71
2023/02/06 11:13:28;;;;;;;4.73;4.27;;;5.20;37.00;;;;;;10457845;28;20235;-71
2023/02/06 11:18:36;;;;;;;5.87;4.80;;;5.30;37.30;;;;;;10462278;28;20239;-71
2023/02/06 11:23:41;;;;;;;5.50;4.10;;;5.30;37.10;;;;;;10462935;28;20236;-71
2023/02/06 11:28:51;;;;;;;3.83;3.43;;;5.30;37.00;;;;;;10457988;28;20314;-71
2023/02/06 11:33:57;;;;;;;6.17;3.70;;;5.30;36.60;;;;;;10456639;28;20240;-72
2023/02/06 11:39:02;;;;;;;4.03;3.40;;;5.30;37.00;;;;;;10461467;28;20435;-71
2023/02/06 11:44:06;;;;;;;4.40;3.70;;;5.30;37.00;;;;;;10459375;28;21121;-71
2023/02/06 11:49:24;;;;;;;4.80;4.27;;;5.30;37.10;;;;;;10456925;28;20228;-70
2023/02/06 11:54:30;;;;;;;4.53;3.67;;;5.30;36.20;;;;;;10459597;28;20881;-71
2023/02/06 11:59:34;;;;;;;4.00;3.70;;;5.30;37.00;;;;;;10463584;28;20236;-71
2023/02/06 12:04:40;;;;;;;3.90;3.60;;;5.30;37.00;;;;;;10460517;28;20232;-71
2023/02/06 12:09:43;;;;;;;3.93;3.53;;;5.40;37.10;;;;;;10458343;28;20292;-71
2023/02/06 12:14:51;;;;;;;4.20;3.80;;;5.40;37.00;;;;;;10463547;28;20235;-70
2023/02/06 12:20:02;;;;;;;4.53;4.13;;;5.50;36.70;;;;;;10460036;28;20239;-70
2023/02/06 12:25:18;;;;;;;3.90;3.53;;;5.50;36.20;;;;;;10460711;28;20692;-70
2023/02/06 12:30:31;;;;;;;4.47;4.03;;;5.50;36.60;;;;;;10459676;28;20236;-70
2023/02/06 12:35:44;;;;;;;4.33;3.93;;;5.60;36.00;;;;;;10458793;28;20608;-71
2023/02/06 12:40:54;;;;;;;4.27;3.90;;;5.60;36.20;;;;;;10459014;28;20723;-70
2023/02/06 12:46:01;;;;;;;5.73;4.20;;;5.60;36.50;;;;;;10458710;28;20615;-70
2023/02/06 12:51:13;;;;;;;6.03;5.00;;;5.70;36.80;;;;;;10471885;28;20232;-72
2023/02/06 12:56:26;;;;;;;4.63;4.23;;;5.70;36.50;;;;;;10472685;28;20224;-74
2023/02/06 13:01:41;;;;;;;4.70;4.20;;;5.80;36.30;;;;;;10474429;28;20281;-71
2023/02/06 13:06:51;;;;;;;6.10;4.60;;;5.80;36.30;;;;;;10474789;28;20227;-72
2023/02/06 13:12:07;;;;;;;4.73;4.20;;;5.90;36.30;;;;;;10471991;28;20228;-74
2023/02/06 13:17:17;;;;;;;5.13;4.50;;;6.00;35.60;;;;;;10474777;28;20223;-74
2023/02/06 13:22:44;;;;;;;5.67;4.23;;;6.00;36.20;;;;;;10475630;28;20239;-72
2023/02/06 13:27:47;;;;;;;4.80;4.30;;;6.10;35.40;;;;;;10468134;28;20240;-72
2023/02/06 13:32:52;;;;;;;5.50;4.73;;;6.10;36.20;;;;;;10479250;28;20239;-74
2023/02/06 13:38:27;;;;;;;9.20;4.87;;;6.10;36.10;;;;;;10482243;28;20228;-72
2023/02/06 13:43:30;;;;;;;4.80;4.30;;;6.00;35.00;;;;;;10479877;28;20305;-72
2023/02/06 13:49:00;;;;;;;4.50;4.10;;;5.90;36.20;;;;;;10483647;28;20263;-72
2023/02/06 13:54:28;;;;;;;4.53;3.80;;;5.90;35.60;;;;;;10478763;28;20266;-72
2023/02/06 13:59:35;;;;;;;4.70;3.87;;;5.90;35.40;;;;;;10483518;28;20821;-72
2023/02/06 14:04:39;;;;;;;5.13;4.23;;;6.00;35.80;;;;;;10480006;28;20236;-72
2023/02/06 14:15:26;;;;;;;4.57;4.00;;;6.00;35.30;;;;;;10481731;28;20231;-72
2023/02/06 14:20:41;;;;;;;4.63;3.03;;;6.00;35.50;;;;;;10471226;28;20232;-71
2023/02/06 14:25:58;;;;;;;3.60;3.30;;;6.00;39.50;;;;;;10476085;28;20262;-72
2023/02/06 14:31:12;;;;;;;4.30;3.87;;;6.20;37.00;;;;;;10475512;28;20232;-71
2023/02/06 14:36:39;;;;;;;4.60;4.20;;;6.30;35.90;;;;;;10479047;28;20593;-72
2023/02/06 14:41:43;;;;;;;4.63;3.97;;;6.40;35.70;;;;;;10476812;28;20390;-71
2023/02/06 14:46:49;;;;;;;4.27;3.63;;;6.40;35.90;;;;;;10465610;28;20324;-71
2023/02/06 14:51:53;;;;;;;4.20;3.67;;;6.30;36.00;;;;;;10471355;28;20250;-71
2023/02/06 14:56:58;;;;;;;4.83;4.30;;;6.30;35.90;;;;;;10473716;28;20228;-71
2023/02/06 15:02:14;;;;;;;5.47;4.20;;;6.20;35.90;;;;;;10478065;28;20228;-71
2023/02/06 15:07:27;;;;;;;3.93;3.63;;;6.20;35.30;;;;;;10478357;28;20231;-71
2023/02/06 15:12:33;;;;;;;5.33;4.83;;;6.20;35.40;;;;;;10478402;28;20606;-71
2023/02/06 15:17:37;;;;;;;5.50;4.50;;;6.10;36.00;;;;;;10478078;28;20220;-70
2023/02/06 15:22:41;;;;;;;5.13;4.60;;;6.20;36.90;;;;;;10478899;28;20239;-71
2023/02/06 15:27:45;;;;;;;5.10;4.47;;;6.20;37.20;;;;;;10481998;28;20228;-71
2023/02/06 15:32:50;;;;;;;5.20;4.70;;;6.20;36.70;;;;;;10477271;28;20239;-71
2023/02/06 15:37:55;;;;;;;5.23;4.73;;;6.20;36.50;;;;;;10478996;28;20236;-71
2023/02/06 15:43:01;;;;;;;5.20;4.70;;;6.20;36.60;;;;;;10479837;28;20264;-71
2023/02/06 15:48:11;;;;;;;5.53;4.63;;;6.20;36.50;;;;;;10477332;28;20282;-71
2023/02/06 15:53:18;;;;;;;5.40;4.43;;;6.10;36.30;;;;;;10475871;28;20251;-71
2023/02/06 15:58:24;;;;;;;5.53;5.03;;;6.10;36.50;;;;;;10475202;28;20309;-71
2023/02/06 16:03:30;;;;;;;5.47;4.87;;;6.00;36.70;;;;;;10475169;28;20233;-70
2023/02/06 16:08:36;;;;;;;5.40;4.90;;;6.00;36.90;;;;;;10474635;28;21776;-71
2023/02/06 16:13:45;;;;;;;6.00;5.10;;;6.00;36.90;;;;;;10473312;28;20275;-71
2023/02/06 16:18:51;;;;;;;6.27;5.67;;;5.90;37.00;;;;;;10478076;28;20278;-70
2023/02/06 16:24:06;;;;;;;8.33;7.37;;;5.90;37.10;;;;;;10475945;28;20240;-70
2023/02/06 16:29:24;;;;;;;7.87;6.63;;;5.80;37.30;;;;;;10479561;28;20226;-71
2023/02/06 16:34:40;;;;;;;6.37;5.77;;;5.80;37.40;;;;;;10473825;28;20232;-70
2023/02/06 16:39:44;;;;;;;6.40;5.80;;;5.70;37.40;;;;;;10474283;28;20243;-71
2023/02/06 16:44:51;;;;;;;6.47;5.87;;;5.70;37.40;;;;;;10472491;28;20282;-71
2023/02/06 16:49:54;;;;;;;6.17;5.57;;;5.60;37.30;;;;;;10472885;28;20246;-71
2023/02/06 16:54:58;;;;;;;5.97;5.47;;;5.60;37.30;;;;;;10472097;28;20236;-70
2023/02/06 17:00:08;;;;;;;6.63;5.93;;;5.50;37.20;;;;;;10474292;28;20231;-70
2023/02/06 17:05:11;;;;;;;5.50;5.00;;;5.60;37.30;;;;;;10476572;28;20231;-69
2023/02/06 17:10:16;;;;;;;6.40;5.80;;;5.60;37.30;;;;;;10484770;28;20232;-69
2023/02/06 17:15:20;;;;;;;7.23;6.53;;;5.50;37.20;;;;;;10483633;28;20232;-69
2023/02/06 17:20:29;;;;;;;9.27;7.13;;;5.50;37.20;;;;;;10482837;28;20235;-69
2023/02/06 17:25:33;;;;;;;7.03;6.33;;;5.50;37.30;;;;;;10482620;28;20252;-69
2023/02/06 17:30:38;;;;;;;7.53;6.83;;;5.50;37.20;;;;;;10477475;28;20235;-69
2023/02/06 17:35:42;;;;;;;7.83;7.03;;;5.50;37.20;;;;;;10484385;28;20252;-69
2023/02/06 17:40:45;;;;;;;7.67;6.87;;;5.50;37.20;;;;;;10483295;28;20224;-69
2023/02/06 17:45:49;;;;;;;7.40;6.70;;;5.50;37.50;;;;;;10482318;28;20259;-69
2023/02/06 17:50:53;;;;;;;9.50;7.03;;;5.40;37.50;;;;;;10479029;28;20232;-69
2023/02/06 17:55:56;;;;;;;7.17;6.47;;;5.40;37.50;;;;;;10474230;28;20224;-69
2023/02/06 18:01:00;;;;;;;7.97;6.93;;;5.40;37.50;;;;;;10477729;28;20240;-69
2023/02/06 18:06:04;;;;;;;8.43;6.93;;;5.40;37.60;;;;;;10478246;28;20228;-69
2023/02/06 18:11:10;;;;;;;7.07;6.33;;;5.40;37.50;;;;;;10478483;28;20232;-70
2023/02/06 18:16:17;;;;;;;6.53;5.93;;;5.40;37.50;;;;;;10482639;28;20318;-69
2023/02/06 18:21:23;;;;;;;10.03;8.80;;;5.40;37.70;;;;;;10480921;28;20242;-69
2023/02/06 18:26:27;;;;;;;19.77;15.30;;;5.40;37.50;;;;;;10480181;28;20239;-69
2023/02/06 18:31:34;;;;;;;9.83;8.47;;;5.40;37.60;;;;;;10480742;28;20612;-69
2023/02/06 18:36:38;;;;;;;8.37;7.43;;;5.40;37.90;;;;;;10479681;28;20225;-69
2023/02/06 18:47:03;;;;;;;8.03;6.47;;;5.30;37.70;;;;;;10473810;28;20228;-70
2023/02/06 18:52:07;;;;;;;6.90;6.23;;;5.30;37.70;;;;;;10481155;28;20228;-69
2023/02/06 18:57:10;;;;;;;7.53;6.80;;;5.30;37.70;;;;;;10474187;28;20227;-69
2023/02/06 19:02:15;;;;;;;7.40;6.60;;;5.30;37.70;;;;;;10478843;28;20236;-69
2023/02/06 19:07:18;;;;;;;8.47;6.43;;;5.30;37.80;;;;;;10479503;28;20220;-69
2023/02/06 19:12:21;;;;;;;11.10;7.67;;;5.30;37.70;;;;;;10474026;28;20244;-70
2023/02/06 19:17:27;;;;;;;6.67;5.80;;;5.20;37.40;;;;;;10472422;28;20243;-70
2023/02/06 19:22:32;;;;;;;7.23;6.57;;;5.20;37.30;;;;;;10476126;28;20606;-69
2023/02/06 19:27:38;;;;;;;7.47;6.77;;;5.10;37.40;;;;;;10474687;28;20232;-70
2023/02/06 19:32:42;;;;;;;7.90;7.10;;;5.00;37.50;;;;;;10472999;28;20239;-71
2023/02/06 19:37:45;;;;;;;14.97;10.90;;;5.00;37.60;;;;;;10476910;28;20228;-71
2023/02/06 19:42:49;;;;;;;11.53;8.80;;;5.00;37.30;;;;;;10474584;28;20268;-71
2023/02/06 19:47:55;;;;;;;8.27;7.40;;;4.90;37.00;;;;;;10476793;28;20236;-71
2023/02/06 19:52:59;;;;;;;12.03;9.43;;;4.90;37.10;;;;;;10478480;28;20608;-71
2023/02/06 19:58:02;;;;;;;8.63;6.77;;;4.80;36.90;;;;;;10474656;28;20669;-72
2023/02/06 20:03:07;;;;;;;7.13;6.43;;;4.70;37.00;;;;;;10479614;28;20232;-71
2023/02/06 20:08:10;;;;;;;6.20;5.60;;;4.60;37.20;;;;;;10474617;28;20607;-71
2023/02/06 20:13:13;;;;;;;6.20;5.50;;;4.60;37.30;;;;;;10458470;28;20232;-71
2023/02/06 20:18:18;;;;;;;7.13;6.40;;;4.50;37.10;;;;;;10477740;28;20233;-70
2023/02/06 20:23:21;;;;;;;9.03;6.90;;;4.50;36.60;;;;;;10475933;28;20704;-70
2023/02/06 20:28:24;;;;;;;8.10;6.47;;;4.40;36.60;;;;;;10478340;28;20620;-70
2023/02/06 20:33:31;;;;;;;6.67;5.70;;;4.30;36.90;;;;;;10474102;28;20735;-70
2023/02/06 20:38:35;;;;;;;6.30;5.70;;;4.20;37.00;;;;;;10476386;28;20248;-70
2023/02/06 20:43:38;;;;;;;8.50;7.70;;;4.20;37.20;;;;;;10482181;28;20970;-71
2023/02/06 20:48:44;;;;;;;11.30;8.63;;;4.10;37.10;;;;;;10479535;28;20274;-70
2023/02/06 20:53:47;;;;;;;7.30;6.60;;;4.10;37.30;;;;;;10482281;28;20240;-71
2023/02/06 20:58:51;;;;;;;7.00;6.33;;;4.00;37.00;;;;;;10481742;28;20243;-71
2023/02/06 21:03:59;;;;;;;6.97;6.10;;;4.00;36.80;;;;;;10479634;28;21100;-71
2023/02/06 21:09:04;;;;;;;5.50;5.00;;;3.90;36.70;;;;;;10479296;28;20235;-72
2023/02/06 21:14:07;;;;;;;8.87;7.10;;;3.80;36.80;;;;;;10478363;28;20247;-73
2023/02/06 21:19:15;;;;;;;9.90;8.63;;;3.70;36.80;;;;;;10476746;28;20704;-73
2023/02/06 21:24:19;;;;;;;10.00;9.00;;;3.60;36.90;;;;;;10479299;28;20228;-72
2023/02/06 21:29:22;;;;;;;10.07;8.10;;;3.60;36.80;;;;;;10478393;28;20240;-73
2023/02/06 21:34:27;;;;;;;8.47;7.20;;;3.50;36.80;;;;;;10480532;28;20240;-73
2023/02/06 21:39:30;;;;;;;9.57;8.57;;;3.50;36.90;;;;;;10473701;28;20232;-73
2023/02/06 21:44:33;;;;;;;8.83;7.93;;;3.40;37.00;;;;;;10481503;28;20236;-73
2023/02/06 21:49:38;;;;;;;10.30;9.20;;;3.30;36.80;;;;;;10482388;28;20787;-73
2023/02/06 21:54:41;;;;;;;11.03;9.23;;;3.30;36.90;;;;;;10483247;28;20236;-73
2023/02/06 21:59:44;;;;;;;9.63;7.70;;;3.20;36.80;;;;;;10479363;28;20224;-73
2023/02/06 22:04:49;;;;;;;11.47;9.07;;;3.20;36.80;;;;;;10483856;28;20239;-73
2023/02/06 22:09:52;;;;;;;10.07;8.83;;;3.30;37.00;;;;;;10480148;28;20232;-73
2023/02/06 22:14:55;;;;;;;9.70;8.50;;;3.10;37.00;;;;;;10483558;28;20236;-73
2023/02/06 22:19:59;;;;;;;9.10;6.80;;;3.10;36.80;;;;;;10485650;28;20240;-73
2023/02/06 22:25:03;;;;;;;8.27;7.00;;;3.10;36.80;;;;;;10481242;28;20688;-73
2023/02/06 22:30:08;;;;;;;8.27;7.47;;;3.00;36.80;;;;;;10484149;28;20236;-73
2023/02/06 22:35:12;;;;;;;8.50;7.60;;;3.00;36.60;;;;;;10481754;28;20234;-73
2023/02/06 22:40:16;;;;;;;8.50;7.60;;;2.90;36.60;;;;;;10482813;28;20232;-73
2023/02/06 22:45:19;;;;;;;8.50;7.60;;;2.90;36.70;;;;;;10476286;28;20751;-73
2023/02/06 22:50:24;;;;;;;14.03;9.67;;;2.80;36.60;;;;;;10480820;28;20605;-71
2023/02/06 22:56:25;;;;;;;11.47;10.27;;;2.70;36.50;;;;;;10480260;28;20228;-71
2023/02/06 23:00:51;;;;;;;13.37;9.77;;;2.60;36.50;;;;;;10479987;28;20220;-71
2023/02/06 23:05:55;;;;;;;11.53;9.57;;;2.60;36.50;;;;;;10477683;28;20303;-71
2023/02/06 23:10:58;;;;;;;9.97;8.40;;;2.40;36.50;;;;;;10478660;28;20255;-71
2023/02/06 23:16:02;;;;;;;9.97;7.70;;;2.30;36.50;;;;;;10481388;28;20577;-71
2023/02/06 23:21:09;;;;;;;8.70;7.80;;;2.20;36.50;;;;;;10482330;28;20228;-71
2023/02/06 23:26:13;;;;;;;9.47;7.77;;;2.10;36.50;;;;;;10479927;28;20228;-71
2023/02/06 23:31:16;;;;;;;8.90;7.87;;;1.90;36.40;;;;;;10480268;28;20735;-71
2023/02/06 23:36:22;;;;;;;9.60;8.07;;;1.80;36.50;;;;;;10480666;28;21256;-71
2023/02/06 23:41:27;;;;;;;9.27;8.30;;;1.70;36.60;;;;;;10479896;28;20228;-71
2023/02/06 23:46:33;;;;;;;8.50;7.47;;;1.70;36.80;;;;;;10481040;28;20232;-73
2023/02/06 23:51:37;;;;;;;9.17;6.53;;;1.60;36.70;;;;;;10475804;28;20231;-73
2023/02/06 23:56:41;;;;;;;8.47;7.10;;;1.60;36.90;;;;;;10478847;28;20242;-73
